sensor_id;sensor_type;location;lat;lon;timestamp;P1;durP1;ratioP1;P2;durP2;ratioP2
13345;SDS011;6742;48.036;15.780;2022-11-15T00:00:17;144.67;;;136.70;;
13345;SDS011;6742;48.036;15.780;2022-11-15T00:02:44;109.60;;;103.53;;
13345;SDS011;6742;48.036;15.780;2022-11-15T00:05:11;110.67;;;104.47;;
13345;SDS011;6742;48.036;15.780;2022-11-15T00:07:38;115.17;;;108.87;;
13345;SDS011;6742;48.036;15.780;2022-11-15T00:10:05;110.63;;;104.70;;
13345;SDS011;6742;48.036;15.780;2022-11-15T00:12:33;127.97;;;120.93;;
13345;SDS011;6742;48.036;15.780;2022-11-15T00:15:00;120.60;;;114.13;;
13345;SDS011;6742;48.036;15.780;2022-11-15T00:17:28;117.40;;;111.17;;
13345;SDS011;6742;48.036;15.780;2022-11-15T00:19:55;129.17;;;122.30;;
13345;SDS011;6742;48.036;15.780;2022-11-15T00:22:23;121.23;;;114.67;;
13345;SDS011;6742;48.036;15.780;2022-11-15T00:24:49;121.57;;;115.10;;
13345;SDS011;6742;48.036;15.780;2022-11-15T00:27:16;112.70;;;106.73;;
13345;SDS011;6742;48.036;15.780;2022-11-15T00:29:43;119.07;;;112.40;;
13345;SDS011;6742;48.036;15.780;2022-11-15T00:32:11;120.93;;;114.13;;
13345;SDS011;6742;48.036;15.780;2022-11-15T00:34:40;125.63;;;118.67;;
13345;SDS011;6742;48.036;15.780;2022-11-15T00:37:07;114.13;;;107.90;;
13345;SDS011;6742;48.036;15.780;2022-11-15T00:39:33;126.43;;;119.60;;
13345;SDS011;6742;48.036;15.780;2022-11-15T00:42:00;147.87;;;140.10;;
13345;SDS011;6742;48.036;15.780;2022-11-15T00:44:27;135.70;;;128.43;;
13345;SDS011;6742;48.036;15.780;2022-11-15T00:46:54;136.80;;;129.40;;
13345;SDS011;6742;48.036;15.780;2022-11-15T00:49:21;117.70;;;111.50;;
13345;SDS011;6742;48.036;15.780;2022-11-15T00:51:49;134.63;;;127.50;;
13345;SDS011;6742;48.036;15.780;2022-11-15T00:54:16;147.87;;;139.80;;
13345;SDS011;6742;48.036;15.780;2022-11-15T00:56:43;114.10;;;108.07;;
13345;SDS011;6742;48.036;15.780;2022-11-15T00:59:13;117.30;;;111.00;;
13345;SDS011;6742;48.036;15.780;2022-11-15T01:01:40;128.53;;;121.63;;
13345;SDS011;6742;48.036;15.780;2022-11-15T01:04:06;122.70;;;116.03;;
13345;SDS011;6742;48.036;15.780;2022-11-15T01:06:33;113.13;;;107.07;;
13345;SDS011;6742;48.036;15.780;2022-11-15T01:09:02;129.53;;;122.73;;
13345;SDS011;6742;48.036;15.780;2022-11-15T01:11:29;115.20;;;109.33;;
13345;SDS011;6742;48.036;15.780;2022-11-15T01:13:56;132.30;;;125.27;;
13345;SDS011;6742;48.036;15.780;2022-11-15T01:16:23;136.47;;;129.70;;
13345;SDS011;6742;48.036;15.780;2022-11-15T01:18:50;100.70;;;95.40;;
13345;SDS011;6742;48.036;15.780;2022-11-15T01:21:17;129.40;;;122.60;;
13345;SDS011;6742;48.036;15.780;2022-11-15T01:23:45;103.33;;;98.03;;
13345;SDS011;6742;48.036;15.780;2022-11-15T01:26:14;132.53;;;125.63;;
13345;SDS011;6742;48.036;15.780;2022-11-15T01:28:41;115.13;;;109.03;;
13345;SDS011;6742;48.036;15.780;2022-11-15T01:31:11;122.27;;;115.87;;
13345;SDS011;6742;48.036;15.780;2022-11-15T01:33:40;138.60;;;131.47;;
13345;SDS011;6742;48.036;15.780;2022-11-15T01:36:07;115.33;;;109.50;;
13345;SDS011;6742;48.036;15.780;2022-11-15T01:38:37;121.70;;;115.50;;
13345;SDS011;6742;48.036;15.780;2022-11-15T01:41:04;111.03;;;105.30;;
13345;SDS011;6742;48.036;15.780;2022-11-15T01:43:33;123.40;;;117.17;;
13345;SDS011;6742;48.036;15.780;2022-11-15T01:46:02;127.47;;;120.80;;
13345;SDS011;6742;48.036;15.780;2022-11-15T01:48:33;114.73;;;108.90;;
13345;SDS011;6742;48.036;15.780;2022-11-15T01:51:01;143.80;;;136.37;;
13345;SDS011;6742;48.036;15.780;2022-11-15T01:53:32;121.13;;;115.00;;
13345;SDS011;6742;48.036;15.780;2022-11-15T01:56:01;117.80;;;111.90;;
13345;SDS011;6742;48.036;15.780;2022-11-15T01:58:30;112.47;;;106.57;;
13345;SDS011;6742;48.036;15.780;2022-11-15T02:00:59;122.67;;;116.23;;
13345;SDS011;6742;48.036;15.780;2022-11-15T02:03:27;125.47;;;119.07;;
13345;SDS011;6742;48.036;15.780;2022-11-15T02:06:00;125.33;;;119.00;;
13345;SDS011;6742;48.036;15.780;2022-11-15T02:08:29;127.63;;;120.97;;
13345;SDS011;6742;48.036;15.780;2022-11-15T02:10:56;120.27;;;114.17;;
13345;SDS011;6742;48.036;15.780;2022-11-15T02:13:23;134.70;;;127.77;;
13345;SDS011;6742;48.036;15.780;2022-11-15T02:15:52;139.07;;;131.97;;
13345;SDS011;6742;48.036;15.780;2022-11-15T02:18:32;151.50;;;143.40;;
13345;SDS011;6742;48.036;15.780;2022-11-15T02:21:16;143.40;;;136.00;;
13345;SDS011;6742;48.036;15.780;2022-11-15T02:30:15;155.70;;;147.60;;
13345;SDS011;6742;48.036;15.780;2022-11-15T02:32:48;167.70;;;158.97;;
13345;SDS011;6742;48.036;15.780;2022-11-15T02:35:23;151.63;;;143.93;;
13345;SDS011;6742;48.036;15.780;2022-11-15T02:37:56;149.77;;;142.03;;
13345;SDS011;6742;48.036;15.780;2022-11-15T02:40:27;127.73;;;121.27;;
13345;SDS011;6742;48.036;15.780;2022-11-15T02:43:04;147.67;;;140.17;;
13345;SDS011;6742;48.036;15.780;2022-11-15T02:45:58;143.23;;;136.17;;
13345;SDS011;6742;48.036;15.780;2022-11-15T02:48:31;125.20;;;118.60;;
13345;SDS011;6742;48.036;15.780;2022-11-15T02:50:58;129.13;;;122.53;;
13345;SDS011;6742;48.036;15.780;2022-11-15T02:53:27;145.87;;;138.37;;
13345;SDS011;6742;48.036;15.780;2022-11-15T02:55:54;136.17;;;129.27;;
13345;SDS011;6742;48.036;15.780;2022-11-15T02:58:35;141.93;;;134.67;;
13345;SDS011;6742;48.036;15.780;2022-11-15T03:01:18;125.17;;;118.87;;
13345;SDS011;6742;48.036;15.780;2022-11-15T03:03:56;151.63;;;144.00;;
13345;SDS011;6742;48.036;15.780;2022-11-15T03:06:35;137.30;;;130.37;;
13345;SDS011;6742;48.036;15.780;2022-11-15T03:09:09;140.33;;;133.43;;
13345;SDS011;6742;48.036;15.780;2022-11-15T03:11:46;140.87;;;133.80;;
13345;SDS011;6742;48.036;15.780;2022-11-15T03:14:18;140.60;;;133.63;;
13345;SDS011;6742;48.036;15.780;2022-11-15T03:16:49;140.47;;;133.43;;
13345;SDS011;6742;48.036;15.780;2022-11-15T03:19:25;154.90;;;147.03;;
13345;SDS011;6742;48.036;15.780;2022-11-15T03:21:58;133.67;;;127.13;;
13345;SDS011;6742;48.036;15.780;2022-11-15T03:24:30;151.13;;;143.73;;
13345;SDS011;6742;48.036;15.780;2022-11-15T03:27:02;122.57;;;116.60;;
13345;SDS011;6742;48.036;15.780;2022-11-15T03:29:32;131.87;;;125.50;;
13345;SDS011;6742;48.036;15.780;2022-11-15T03:32:03;121.37;;;115.47;;
13345;SDS011;6742;48.036;15.780;2022-11-15T03:34:34;124.13;;;118.00;;
13345;SDS011;6742;48.036;15.780;2022-11-15T03:37:05;130.73;;;124.40;;
13345;SDS011;6742;48.036;15.780;2022-11-15T03:39:33;142.77;;;135.53;;
13345;SDS011;6742;48.036;15.780;2022-11-15T03:42:04;131.37;;;124.80;;
13345;SDS011;6742;48.036;15.780;2022-11-15T03:44:40;137.47;;;130.67;;
13345;SDS011;6742;48.036;15.780;2022-11-15T03:47:12;129.70;;;123.33;;
13345;SDS011;6742;48.036;15.780;2022-11-15T03:49:44;143.00;;;136.00;;
13345;SDS011;6742;48.036;15.780;2022-11-15T03:52:17;131.27;;;124.93;;
13345;SDS011;6742;48.036;15.780;2022-11-15T03:54:49;142.60;;;135.63;;
13345;SDS011;6742;48.036;15.780;2022-11-15T03:57:18;145.17;;;138.07;;
13345;SDS011;6742;48.036;15.780;2022-11-15T03:59:45;138.17;;;131.43;;
13345;SDS011;6742;48.036;15.780;2022-11-15T04:02:13;160.40;;;152.63;;
13345;SDS011;6742;48.036;15.780;2022-11-15T04:04:40;146.80;;;139.67;;
13345;SDS011;6742;48.036;15.780;2022-11-15T04:07:10;148.03;;;140.97;;
13345;SDS011;6742;48.036;15.780;2022-11-15T04:09:37;135.73;;;129.40;;
13345;SDS011;6742;48.036;15.780;2022-11-15T04:12:24;126.00;;;119.97;;
13345;SDS011;6742;48.036;15.780;2022-11-15T04:14:57;145.97;;;138.83;;
13345;SDS011;6742;48.036;15.780;2022-11-15T04:17:39;157.17;;;149.57;;
13345;SDS011;6742;48.036;15.780;2022-11-15T04:20:09;155.33;;;147.77;;
13345;SDS011;6742;48.036;15.780;2022-11-15T04:22:56;205.20;;;194.93;;
13345;SDS011;6742;48.036;15.780;2022-11-15T04:25:44;173.83;;;165.47;;
13345;SDS011;6742;48.036;15.780;2022-11-15T04:28:11;139.73;;;133.03;;
13345;SDS011;6742;48.036;15.780;2022-11-15T04:30:38;175.70;;;167.37;;
13345;SDS011;6742;48.036;15.780;2022-11-15T04:33:07;163.33;;;155.43;;
13345;SDS011;6742;48.036;15.780;2022-11-15T04:35:34;191.70;;;182.27;;
13345;SDS011;6742;48.036;15.780;2022-11-15T04:38:02;158.23;;;150.57;;
13345;SDS011;6742;48.036;15.780;2022-11-15T04:40:30;173.70;;;165.20;;
13345;SDS011;6742;48.036;15.780;2022-11-15T04:42:57;171.67;;;163.50;;
13345;SDS011;6742;48.036;15.780;2022-11-15T04:45:24;151.37;;;143.90;;
13345;SDS011;6742;48.036;15.780;2022-11-15T04:47:51;154.50;;;146.80;;
13345;SDS011;6742;48.036;15.780;2022-11-15T04:50:22;139.07;;;132.40;;
13345;SDS011;6742;48.036;15.780;2022-11-15T04:52:52;130.53;;;124.43;;
13345;SDS011;6742;48.036;15.780;2022-11-15T04:55:20;139.37;;;132.63;;
13345;SDS011;6742;48.036;15.780;2022-11-15T04:57:47;171.20;;;162.73;;
13345;SDS011;6742;48.036;15.780;2022-11-15T05:00:23;163.97;;;156.07;;
13345;SDS011;6742;48.036;15.780;2022-11-15T05:02:50;141.57;;;134.73;;
13345;SDS011;6742;48.036;15.780;2022-11-15T05:05:38;129.80;;;123.57;;
13345;SDS011;6742;48.036;15.780;2022-11-15T05:08:05;164.13;;;156.17;;
13345;SDS011;6742;48.036;15.780;2022-11-15T05:10:32;163.60;;;155.43;;
13345;SDS011;6742;48.036;15.780;2022-11-15T05:12:59;175.83;;;167.17;;
13345;SDS011;6742;48.036;15.780;2022-11-15T05:15:27;140.47;;;133.67;;
13345;SDS011;6742;48.036;15.780;2022-11-15T05:17:57;133.70;;;127.13;;
13345;SDS011;6742;48.036;15.780;2022-11-15T05:20:24;137.37;;;130.70;;
13345;SDS011;6742;48.036;15.780;2022-11-15T05:22:53;144.07;;;137.20;;
13345;SDS011;6742;48.036;15.780;2022-11-15T05:25:20;163.90;;;155.97;;
13345;SDS011;6742;48.036;15.780;2022-11-15T05:27:48;179.80;;;171.10;;
13345;SDS011;6742;48.036;15.780;2022-11-15T05:30:15;152.03;;;144.67;;
13345;SDS011;6742;48.036;15.780;2022-11-15T05:32:42;167.10;;;158.90;;
13345;SDS011;6742;48.036;15.780;2022-11-15T05:35:11;185.97;;;176.77;;
13345;SDS011;6742;48.036;15.780;2022-11-15T05:37:43;206.50;;;196.30;;
13345;SDS011;6742;48.036;15.780;2022-11-15T05:40:12;157.27;;;149.70;;
13345;SDS011;6742;48.036;15.780;2022-11-15T05:42:39;181.23;;;172.30;;
13345;SDS011;6742;48.036;15.780;2022-11-15T05:45:06;190.70;;;181.53;;
13345;SDS011;6742;48.036;15.780;2022-11-15T05:47:35;204.43;;;194.70;;
13345;SDS011;6742;48.036;15.780;2022-11-15T05:50:08;174.47;;;166.17;;
13345;SDS011;6742;48.036;15.780;2022-11-15T05:52:38;184.10;;;175.30;;
13345;SDS011;6742;48.036;15.780;2022-11-15T05:55:05;162.87;;;155.07;;
13345;SDS011;6742;48.036;15.780;2022-11-15T05:57:36;164.63;;;156.70;;
13345;SDS011;6742;48.036;15.780;2022-11-15T06:00:03;210.33;;;199.93;;
13345;SDS011;6742;48.036;15.780;2022-11-15T06:02:31;189.57;;;180.47;;
13345;SDS011;6742;48.036;15.780;2022-11-15T06:04:58;169.07;;;160.87;;
13345;SDS011;6742;48.036;15.780;2022-11-15T06:07:25;165.63;;;157.77;;
13345;SDS011;6742;48.036;15.780;2022-11-15T06:09:52;147.97;;;140.80;;
13345;SDS011;6742;48.036;15.780;2022-11-15T06:12:19;150.03;;;142.57;;
13345;SDS011;6742;48.036;15.780;2022-11-15T06:14:47;133.90;;;127.33;;
13345;SDS011;6742;48.036;15.780;2022-11-15T06:17:14;151.57;;;144.17;;
13345;SDS011;6742;48.036;15.780;2022-11-15T06:19:41;142.73;;;135.83;;
13345;SDS011;6742;48.036;15.780;2022-11-15T06:22:08;143.03;;;135.93;;
13345;SDS011;6742;48.036;15.780;2022-11-15T06:24:35;145.27;;;138.27;;
13345;SDS011;6742;48.036;15.780;2022-11-15T06:27:02;143.03;;;136.17;;
13345;SDS011;6742;48.036;15.780;2022-11-15T06:29:29;157.10;;;149.40;;
13345;SDS011;6742;48.036;15.780;2022-11-15T06:31:58;175.00;;;166.50;;
13345;SDS011;6742;48.036;15.780;2022-11-15T06:34:25;160.67;;;152.97;;
13345;SDS011;6742;48.036;15.780;2022-11-15T06:36:51;158.53;;;150.87;;
13345;SDS011;6742;48.036;15.780;2022-11-15T06:39:18;164.80;;;157.00;;
13345;SDS011;6742;48.036;15.780;2022-11-15T06:41:45;149.90;;;142.63;;
13345;SDS011;6742;48.036;15.780;2022-11-15T06:44:12;146.87;;;139.60;;
13345;SDS011;6742;48.036;15.780;2022-11-15T06:46:39;151.97;;;144.57;;
13345;SDS011;6742;48.036;15.780;2022-11-15T06:49:07;137.80;;;131.10;;
13345;SDS011;6742;48.036;15.780;2022-11-15T06:51:34;173.70;;;165.33;;
13345;SDS011;6742;48.036;15.780;2022-11-15T06:54:01;189.03;;;179.97;;
13345;SDS011;6742;48.036;15.780;2022-11-15T06:56:28;154.90;;;147.40;;
13345;SDS011;6742;48.036;15.780;2022-11-15T06:58:55;136.63;;;130.07;;
13345;SDS011;6742;48.036;15.780;2022-11-15T07:01:22;127.00;;;120.80;;
13345;SDS011;6742;48.036;15.780;2022-11-15T07:03:49;125.10;;;119.10;;
13345;SDS011;6742;48.036;15.780;2022-11-15T07:06:17;138.50;;;131.90;;
13345;SDS011;6742;48.036;15.780;2022-11-15T07:08:44;143.73;;;136.80;;
13345;SDS011;6742;48.036;15.780;2022-11-15T07:11:11;147.10;;;140.03;;
13345;SDS011;6742;48.036;15.780;2022-11-15T07:13:38;143.70;;;136.80;;
13345;SDS011;6742;48.036;15.780;2022-11-15T07:16:06;159.23;;;151.77;;
13345;SDS011;6742;48.036;15.780;2022-11-15T07:18:35;126.80;;;120.80;;
13345;SDS011;6742;48.036;15.780;2022-11-15T07:21:03;124.50;;;118.53;;
13345;SDS011;6742;48.036;15.780;2022-11-15T07:23:32;110.93;;;105.33;;
13345;SDS011;6742;48.036;15.780;2022-11-15T07:26:01;138.63;;;131.90;;
13345;SDS011;6742;48.036;15.780;2022-11-15T07:28:28;136.37;;;129.83;;
13345;SDS011;6742;48.036;15.780;2022-11-15T07:30:55;154.30;;;146.87;;
13345;SDS011;6742;48.036;15.780;2022-11-15T07:33:22;132.13;;;125.77;;
13345;SDS011;6742;48.036;15.780;2022-11-15T07:35:49;146.27;;;139.27;;
13345;SDS011;6742;48.036;15.780;2022-11-15T07:38:16;127.07;;;120.87;;
13345;SDS011;6742;48.036;15.780;2022-11-15T07:40:46;161.93;;;154.17;;
13345;SDS011;6742;48.036;15.780;2022-11-15T07:43:13;146.53;;;139.57;;
13345;SDS011;6742;48.036;15.780;2022-11-15T07:45:40;143.53;;;136.53;;
13345;SDS011;6742;48.036;15.780;2022-11-15T07:48:09;168.87;;;160.57;;
13345;SDS011;6742;48.036;15.780;2022-11-15T07:50:36;179.27;;;170.80;;
13345;SDS011;6742;48.036;15.780;2022-11-15T07:53:07;182.27;;;173.37;;
13345;SDS011;6742;48.036;15.780;2022-11-15T07:55:34;160.13;;;152.07;;
13345;SDS011;6742;48.036;15.780;2022-11-15T07:58:04;132.97;;;126.27;;
13345;SDS011;6742;48.036;15.780;2022-11-15T08:00:32;163.80;;;155.70;;
13345;SDS011;6742;48.036;15.780;2022-11-15T08:03:03;210.87;;;200.20;;
13345;SDS011;6742;48.036;15.780;2022-11-15T08:05:34;218.10;;;206.77;;
13345;SDS011;6742;48.036;15.780;2022-11-15T08:08:02;226.00;;;214.53;;
13345;SDS011;6742;48.036;15.780;2022-11-15T08:10:30;263.53;;;249.50;;
13345;SDS011;6742;48.036;15.780;2022-11-15T08:12:58;216.77;;;205.07;;
13345;SDS011;6742;48.036;15.780;2022-11-15T08:15:27;180.40;;;171.03;;
13345;SDS011;6742;48.036;15.780;2022-11-15T08:17:55;167.80;;;159.47;;
13345;SDS011;6742;48.036;15.780;2022-11-15T08:20:22;170.43;;;161.93;;
13345;SDS011;6742;48.036;15.780;2022-11-15T08:22:50;194.37;;;184.27;;
13345;SDS011;6742;48.036;15.780;2022-11-15T08:25:17;143.43;;;135.97;;
13345;SDS011;6742;48.036;15.780;2022-11-15T08:27:47;175.23;;;166.20;;
13345;SDS011;6742;48.036;15.780;2022-11-15T08:30:14;161.40;;;153.00;;
13345;SDS011;6742;48.036;15.780;2022-11-15T08:32:43;177.37;;;168.17;;
13345;SDS011;6742;48.036;15.780;2022-11-15T08:35:10;143.80;;;135.97;;
13345;SDS011;6742;48.036;15.780;2022-11-15T08:37:37;230.63;;;217.93;;
13345;SDS011;6742;48.036;15.780;2022-11-15T08:40:05;265.73;;;250.97;;
13345;SDS011;6742;48.036;15.780;2022-11-15T08:42:32;210.37;;;199.37;;
13345;SDS011;6742;48.036;15.780;2022-11-15T08:44:59;139.40;;;132.13;;
13345;SDS011;6742;48.036;15.780;2022-11-15T08:47:26;120.90;;;114.63;;
13345;SDS011;6742;48.036;15.780;2022-11-15T08:49:55;118.83;;;112.60;;
13345;SDS011;6742;48.036;15.780;2022-11-15T08:52:22;109.17;;;103.63;;
13345;SDS011;6742;48.036;15.780;2022-11-15T08:54:49;116.63;;;110.53;;
13345;SDS011;6742;48.036;15.780;2022-11-15T08:57:16;97.67;;;92.93;;
13345;SDS011;6742;48.036;15.780;2022-11-15T08:59:43;91.47;;;87.17;;
13345;SDS011;6742;48.036;15.780;2022-11-15T09:02:11;105.20;;;100.27;;
13345;SDS011;6742;48.036;15.780;2022-11-15T09:04:39;93.77;;;89.47;;
13345;SDS011;6742;48.036;15.780;2022-11-15T09:07:11;85.47;;;81.53;;
13345;SDS011;6742;48.036;15.780;2022-11-15T09:09:39;94.27;;;89.83;;
13345;SDS011;6742;48.036;15.780;2022-11-15T09:12:06;94.17;;;89.77;;
13345;SDS011;6742;48.036;15.780;2022-11-15T09:14:33;114.37;;;108.97;;
13345;SDS011;6742;48.036;15.780;2022-11-15T09:17:00;103.47;;;98.60;;
13345;SDS011;6742;48.036;15.780;2022-11-15T09:19:28;91.77;;;87.40;;
13345;SDS011;6742;48.036;15.780;2022-11-15T09:21:58;107.70;;;102.60;;
13345;SDS011;6742;48.036;15.780;2022-11-15T09:24:26;116.27;;;110.77;;
13345;SDS011;6742;48.036;15.780;2022-11-15T09:26:53;113.67;;;108.07;;
13345;SDS011;6742;48.036;15.780;2022-11-15T09:29:20;118.37;;;112.70;;
13345;SDS011;6742;48.036;15.780;2022-11-15T09:31:47;115.67;;;110.13;;
13345;SDS011;6742;48.036;15.780;2022-11-15T09:34:16;114.63;;;109.18;;
13345;SDS011;6742;48.036;15.780;2022-11-15T09:36:43;107.60;;;102.40;;
13345;SDS011;6742;48.036;15.780;2022-11-15T09:39:10;126.87;;;120.80;;
13345;SDS011;6742;48.036;15.780;2022-11-15T09:41:58;113.87;;;108.33;;
13345;SDS011;6742;48.036;15.780;2022-11-15T09:44:43;107.37;;;102.33;;
13345;SDS011;6742;48.036;15.780;2022-11-15T09:47:31;110.47;;;105.23;;
13345;SDS011;6742;48.036;15.780;2022-11-15T09:50:14;121.60;;;115.80;;
13345;SDS011;6742;48.036;15.780;2022-11-15T09:52:44;132.63;;;126.32;;
13345;SDS011;6742;48.036;15.780;2022-11-15T09:55:12;105.07;;;100.10;;
13345;SDS011;6742;48.036;15.780;2022-11-15T09:57:49;53.90;;;51.07;;
13345;SDS011;6742;48.036;15.780;2022-11-15T10:00:28;113.77;;;108.30;;
13345;SDS011;6742;48.036;15.780;2022-11-15T10:03:04;118.13;;;112.53;;
13345;SDS011;6742;48.036;15.780;2022-11-15T10:05:40;124.00;;;118.03;;
13345;SDS011;6742;48.036;15.780;2022-11-15T10:08:13;123.63;;;117.83;;
13345;SDS011;6742;48.036;15.780;2022-11-15T10:11:03;111.53;;;106.23;;
13345;SDS011;6742;48.036;15.780;2022-11-15T10:13:35;120.20;;;114.37;;
13345;SDS011;6742;48.036;15.780;2022-11-15T10:16:09;131.83;;;125.60;;
13345;SDS011;6742;48.036;15.780;2022-11-15T10:18:45;115.03;;;109.43;;
13345;SDS011;6742;48.036;15.780;2022-11-15T10:21:21;109.00;;;103.63;;
13345;SDS011;6742;48.036;15.780;2022-11-15T10:23:58;98.80;;;94.10;;
13345;SDS011;6742;48.036;15.780;2022-11-15T10:26:25;109.43;;;104.17;;
13345;SDS011;6742;48.036;15.780;2022-11-15T10:28:54;113.07;;;107.47;;
13345;SDS011;6742;48.036;15.780;2022-11-15T10:31:23;107.13;;;101.73;;
13345;SDS011;6742;48.036;15.780;2022-11-15T10:33:56;124.50;;;118.40;;
13345;SDS011;6742;48.036;15.780;2022-11-15T10:36:36;118.80;;;112.90;;
13345;SDS011;6742;48.036;15.780;2022-11-15T10:39:03;137.30;;;130.80;;
13345;SDS011;6742;48.036;15.780;2022-11-15T10:41:37;128.07;;;121.93;;
13345;SDS011;6742;48.036;15.780;2022-11-15T10:44:21;120.33;;;114.63;;
13345;SDS011;6742;48.036;15.780;2022-11-15T10:52:50;136.60;;;130.00;;
13345;SDS011;6742;48.036;15.780;2022-11-15T10:55:22;123.73;;;117.80;;
13345;SDS011;6742;48.036;15.780;2022-11-15T10:57:53;122.03;;;116.20;;
13345;SDS011;6742;48.036;15.780;2022-11-15T11:00:33;99.55;;;94.60;;
13345;SDS011;6742;48.036;15.780;2022-11-15T11:03:02;79.87;;;75.93;;
13345;SDS011;6742;48.036;15.780;2022-11-15T11:05:33;124.53;;;118.50;;
13345;SDS011;6742;48.036;15.780;2022-11-15T11:08:02;104.80;;;99.70;;
13345;SDS011;6742;48.036;15.780;2022-11-15T11:10:31;133.50;;;127.10;;
13345;SDS011;6742;48.036;15.780;2022-11-15T11:13:12;132.67;;;126.23;;
13345;SDS011;6742;48.036;15.780;2022-11-15T11:15:51;122.30;;;116.37;;
13345;SDS011;6742;48.036;15.780;2022-11-15T11:18:23;126.50;;;120.40;;
13345;SDS011;6742;48.036;15.780;2022-11-15T11:20:54;125.50;;;119.30;;
13345;SDS011;6742;48.036;15.780;2022-11-15T11:23:33;125.23;;;119.17;;
13345;SDS011;6742;48.036;15.780;2022-11-15T11:26:12;133.90;;;127.50;;
13345;SDS011;6742;48.036;15.780;2022-11-15T11:28:53;141.00;;;134.33;;
13345;SDS011;6742;48.036;15.780;2022-11-15T11:31:28;126.97;;;120.77;;
13345;SDS011;6742;48.036;15.780;2022-11-15T11:34:03;132.80;;;126.37;;
13345;SDS011;6742;48.036;15.780;2022-11-15T11:36:39;112.40;;;107.03;;
13345;SDS011;6742;48.036;15.780;2022-11-15T11:39:24;121.27;;;115.40;;
13345;SDS011;6742;48.036;15.780;2022-11-15T11:41:57;114.27;;;108.73;;
13345;SDS011;6742;48.036;15.780;2022-11-15T11:44:34;125.93;;;119.83;;
13345;SDS011;6742;48.036;15.780;2022-11-15T11:47:10;124.67;;;118.87;;
13345;SDS011;6742;48.036;15.780;2022-11-15T11:49:40;117.50;;;111.90;;
13345;SDS011;6742;48.036;15.780;2022-11-15T11:52:13;118.30;;;112.60;;
13345;SDS011;6742;48.036;15.780;2022-11-15T11:54:48;128.40;;;122.37;;
13345;SDS011;6742;48.036;15.780;2022-11-15T11:57:23;121.87;;;116.10;;
13345;SDS011;6742;48.036;15.780;2022-11-15T11:59:57;121.60;;;115.90;;
13345;SDS011;6742;48.036;15.780;2022-11-15T12:02:29;122.30;;;116.60;;
13345;SDS011;6742;48.036;15.780;2022-11-15T12:05:02;113.80;;;108.40;;
13345;SDS011;6742;48.036;15.780;2022-11-15T12:07:36;109.47;;;104.17;;
13345;SDS011;6742;48.036;15.780;2022-11-15T12:10:11;111.70;;;106.33;;
13345;SDS011;6742;48.036;15.780;2022-11-15T12:12:44;99.90;;;95.00;;
13345;SDS011;6742;48.036;15.780;2022-11-15T12:15:18;100.90;;;96.10;;
13345;SDS011;6742;48.036;15.780;2022-11-15T12:17:49;109.33;;;103.93;;
13345;SDS011;6742;48.036;15.780;2022-11-15T12:20:17;108.07;;;102.83;;
13345;SDS011;6742;48.036;15.780;2022-11-15T12:22:47;100.17;;;95.27;;
13345;SDS011;6742;48.036;15.780;2022-11-15T12:25:20;98.67;;;93.83;;
13345;SDS011;6742;48.036;15.780;2022-11-15T12:27:51;105.37;;;100.10;;
13345;SDS011;6742;48.036;15.780;2022-11-15T12:30:38;113.10;;;107.23;;
13345;SDS011;6742;48.036;15.780;2022-11-15T12:36:03;94.10;;;89.30;;
13345;SDS011;6742;48.036;15.780;2022-11-15T12:41:24;92.03;;;87.17;;
13345;SDS011;6742;48.036;15.780;2022-11-15T12:43:52;105.87;;;100.00;;
13345;SDS011;6742;48.036;15.780;2022-11-15T12:46:58;78.87;;;74.57;;
13345;SDS011;6742;48.036;15.780;2022-11-15T12:49:43;98.33;;;93.43;;
13345;SDS011;6742;48.036;15.780;2022-11-15T12:52:13;94.13;;;89.47;;
13345;SDS011;6742;48.036;15.780;2022-11-15T12:54:50;86.67;;;82.30;;
13345;SDS011;6742;48.036;15.780;2022-11-15T12:57:36;103.40;;;98.13;;
13345;SDS011;6742;48.036;15.780;2022-11-15T13:03:23;89.63;;;84.90;;
13345;SDS011;6742;48.036;15.780;2022-11-15T13:08:56;104.60;;;99.30;;
13345;SDS011;6742;48.036;15.780;2022-11-15T13:17:23;86.93;;;82.03;;
13345;SDS011;6742;48.036;15.780;2022-11-15T13:20:17;88.00;;;83.40;;
13345;SDS011;6742;48.036;15.780;2022-11-15T13:22:48;96.07;;;91.00;;
13345;SDS011;6742;48.036;15.780;2022-11-15T13:25:30;83.90;;;79.30;;
13345;SDS011;6742;48.036;15.780;2022-11-15T13:28:21;96.47;;;91.37;;
13345;SDS011;6742;48.036;15.780;2022-11-15T13:30:54;106.07;;;100.53;;
13345;SDS011;6742;48.036;15.780;2022-11-15T13:33:23;93.07;;;88.17;;
13345;SDS011;6742;48.036;15.780;2022-11-15T13:35:53;87.13;;;82.47;;
13345;SDS011;6742;48.036;15.780;2022-11-15T13:38:28;99.73;;;94.43;;
13345;SDS011;6742;48.036;15.780;2022-11-15T13:40:57;85.50;;;81.00;;
13345;SDS011;6742;48.036;15.780;2022-11-15T13:43:27;93.03;;;88.20;;
13345;SDS011;6742;48.036;15.780;2022-11-15T13:46:04;114.37;;;108.50;;
13345;SDS011;6742;48.036;15.780;2022-11-15T13:48:37;99.60;;;94.50;;
13345;SDS011;6742;48.036;15.780;2022-11-15T13:51:04;95.90;;;90.93;;
13345;SDS011;6742;48.036;15.780;2022-11-15T13:53:36;111.63;;;106.03;;
13345;SDS011;6742;48.036;15.780;2022-11-15T13:56:06;104.77;;;99.20;;
13345;SDS011;6742;48.036;15.780;2022-11-15T13:58:33;86.83;;;82.27;;
13345;SDS011;6742;48.036;15.780;2022-11-15T14:01:04;90.33;;;85.80;;
13345;SDS011;6742;48.036;15.780;2022-11-15T14:03:32;89.73;;;85.23;;
13345;SDS011;6742;48.036;15.780;2022-11-15T14:06:07;86.80;;;82.30;;
13345;SDS011;6742;48.036;15.780;2022-11-15T14:08:38;86.97;;;82.40;;
13345;SDS011;6742;48.036;15.780;2022-11-15T14:11:07;98.63;;;93.63;;
13345;SDS011;6742;48.036;15.780;2022-11-15T14:13:35;110.53;;;105.07;;
13345;SDS011;6742;48.036;15.780;2022-11-15T14:16:12;88.50;;;84.00;;
13345;SDS011;6742;48.036;15.780;2022-11-15T14:18:44;111.53;;;105.93;;
13345;SDS011;6742;48.036;15.780;2022-11-15T14:21:14;106.40;;;101.30;;
13345;SDS011;6742;48.036;15.780;2022-11-15T14:23:43;103.73;;;98.67;;
13345;SDS011;6742;48.036;15.780;2022-11-15T14:31:18;70.50;;;66.80;;
13345;SDS011;6742;48.036;15.780;2022-11-15T14:33:49;123.80;;;117.67;;
13345;SDS011;6742;48.036;15.780;2022-11-15T14:38:45;63.33;;;59.92;;
13345;SDS011;6742;48.036;15.780;2022-11-15T14:41:20;51.83;;;48.92;;
13345;SDS011;6742;48.036;15.780;2022-11-15T14:43:48;114.33;;;108.70;;
13345;SDS011;6742;48.036;15.780;2022-11-15T14:46:16;110.03;;;104.43;;
13345;SDS011;6742;48.036;15.780;2022-11-15T14:48:43;111.70;;;106.20;;
13345;SDS011;6742;48.036;15.780;2022-11-15T14:51:14;121.80;;;115.80;;
13345;SDS011;6742;48.036;15.780;2022-11-15T14:53:43;101.73;;;96.60;;
13345;SDS011;6742;48.036;15.780;2022-11-15T14:56:12;114.73;;;109.07;;
13345;SDS011;6742;48.036;15.780;2022-11-15T14:58:39;114.50;;;108.70;;